createdAt,value
2017-03-08T00:03:22.912Z,1012.43
2017-03-08T00:08:19.208Z,1012.45
2017-03-08T00:13:15.694Z,1012.63
2017-03-08T00:18:13.423Z,1012.40
2017-03-08T00:23:09.451Z,1012.48
2017-03-08T00:28:06.214Z,1012.52
2017-03-08T00:33:02.935Z,1012.54
2017-03-08T00:37:59.234Z,1012.49
2017-03-08T00:42:55.693Z,1012.63
2017-03-08T00:47:52.097Z,1012.76
2017-03-08T00:52:48.494Z,1012.88
2017-03-08T00:57:45.194Z,1012.87
2017-03-08T01:02:42.171Z,1012.94
2017-03-08T01:07:38.776Z,1012.91
2017-03-08T01:12:35.117Z,1012.96
2017-03-08T01:17:31.634Z,1012.84
2017-03-08T01:22:28.235Z,1012.81
2017-03-08T01:27:24.415Z,1012.91
2017-03-08T01:32:21.055Z,1012.96
2017-03-08T01:37:17.555Z,1012.92
2017-03-08T01:42:13.873Z,1012.98
2017-03-08T01:47:10.326Z,1012.94
2017-03-08T01:52:07.148Z,1013.03
2017-03-08T01:57:03.668Z,1013.00
2017-03-08T02:02:00.316Z,1013.15
2017-03-08T02:06:57.134Z,1013.22
2017-03-08T02:11:54.257Z,1013.15
2017-03-08T02:16:50.591Z,1013.20
2017-03-08T02:21:47.731Z,1013.03
2017-03-08T02:26:44.258Z,1012.96
2017-03-08T02:31:40.552Z,1012.83
2017-03-08T02:36:38.052Z,1012.93
2017-03-08T02:41:34.532Z,1012.94
2017-03-08T02:46:31.115Z,1012.82
2017-03-08T02:51:27.793Z,1012.69
2017-03-08T02:56:24.324Z,1012.65
2017-03-08T03:01:20.491Z,1012.57
2017-03-08T03:06:16.651Z,1012.52
2017-03-08T03:11:13.254Z,1012.50
2017-03-08T03:16:09.672Z,1012.40
2017-03-08T03:21:06.183Z,1012.23
2017-03-08T03:26:02.615Z,1012.19
2017-03-08T03:30:59.310Z,1012.08
2017-03-08T03:35:55.610Z,1012.12
2017-03-08T03:40:51.352Z,1012.17
2017-03-08T03:45:47.771Z,1012.13
2017-03-08T03:50:44.775Z,1012.10
2017-03-08T03:55:41.024Z,1012.06
2017-03-08T04:00:37.654Z,1012.06
2017-03-08T04:05:34.645Z,1011.97
2017-03-08T04:10:30.711Z,1011.95
2017-03-08T04:15:27.171Z,1011.87
2017-03-08T04:20:23.951Z,1011.83
2017-03-08T04:25:20.170Z,1011.74
2017-03-08T04:30:16.778Z,1011.80
2017-03-08T04:35:13.725Z,1011.80
2017-03-08T04:40:10.310Z,1011.82
2017-03-08T04:45:06.869Z,1011.89
2017-03-08T04:50:03.009Z,1011.76
2017-03-08T04:54:59.802Z,1011.80
2017-03-08T04:59:58.269Z,1011.83
2017-03-08T05:04:54.409Z,1011.84
2017-03-08T05:09:50.869Z,1011.75
2017-03-08T05:14:47.469Z,1011.82
2017-03-08T05:19:45.408Z,1011.80
2017-03-08T05:24:41.875Z,1011.78
2017-03-08T05:29:38.426Z,1011.69
2017-03-08T05:34:34.815Z,1011.61
2017-03-08T05:39:31.149Z,1011.59
2017-03-08T05:44:28.638Z,1011.53
2017-03-08T05:49:25.077Z,1011.65
2017-03-08T05:54:21.473Z,1011.72
2017-03-08T05:59:18.442Z,1011.62
2017-03-08T06:04:15.047Z,1011.67
2017-03-08T06:09:12.164Z,1011.62
2017-03-08T06:14:08.350Z,1011.67
2017-03-08T06:19:04.881Z,1011.57
2017-03-08T06:24:01.136Z,1011.50
2017-03-08T06:28:57.824Z,1011.47
2017-03-08T06:33:55.575Z,1011.45
2017-03-08T06:38:51.684Z,1011.21
2017-03-08T06:43:48.312Z,1011.16
2017-03-08T06:48:44.729Z,1011.11
2017-03-08T06:53:41.522Z,1011.00
2017-03-08T06:58:38.199Z,1010.96
2017-03-08T07:03:34.926Z,1010.87
2017-03-08T07:08:31.218Z,1010.91
2017-03-08T07:13:30.301Z,1010.79
2017-03-08T07:18:26.444Z,1010.71
2017-03-08T07:23:23.161Z,1010.57
2017-03-08T07:28:20.066Z,1010.72
2017-03-08T07:33:16.508Z,1010.70
2017-03-08T07:38:13.375Z,1010.66
2017-03-08T07:43:09.844Z,1010.68
2017-03-08T07:48:06.601Z,1010.54
2017-03-08T07:53:02.900Z,1010.62
2017-03-08T07:57:59.588Z,1010.71
2017-03-08T08:02:58.759Z,1010.58
2017-03-08T08:07:54.777Z,1010.46
2017-03-08T08:12:51.256Z,1010.45
2017-03-08T08:17:47.648Z,1010.35
2017-03-08T08:22:44.325Z,1010.38
2017-03-08T08:27:41.472Z,1010.25
2017-03-08T08:32:37.985Z,1010.13
2017-03-08T08:37:34.349Z,1010.00
2017-03-08T08:42:31.075Z,1010.02
2017-03-08T08:47:27.656Z,1009.91
2017-03-08T08:52:24.285Z,1009.88
2017-03-08T08:57:20.953Z,1009.67
2017-03-08T09:02:17.645Z,1009.57
2017-03-08T09:07:14.127Z,1009.42
2017-03-08T09:12:10.887Z,1009.33
2017-03-08T09:17:07.375Z,1009.34
2017-03-08T09:22:04.233Z,1009.07
2017-03-08T09:27:00.684Z,1008.97
2017-03-08T09:31:58.345Z,1008.82
2017-03-08T09:36:55.219Z,1008.83
2017-03-08T09:41:51.852Z,1008.68
2017-03-08T09:46:48.391Z,1008.70
2017-03-08T09:51:45.939Z,1008.82
2017-03-08T09:56:42.225Z,1008.91
2017-03-08T10:01:39.162Z,1008.80
2017-03-08T10:06:35.469Z,1008.71
2017-03-08T10:11:32.261Z,1008.67
2017-03-08T10:16:29.001Z,1008.64
2017-03-08T10:21:25.712Z,1008.51
2017-03-08T10:26:22.661Z,1008.52
2017-03-08T10:31:18.895Z,1008.36
2017-03-08T10:36:15.661Z,1008.29
2017-03-08T10:41:12.051Z,1008.18
2017-03-08T10:46:08.492Z,1008.24
2017-03-08T10:51:04.825Z,1008.22
2017-03-08T10:56:01.581Z,1008.17
2017-03-08T11:00:58.083Z,1008.15
2017-03-08T11:05:55.198Z,1008.13
2017-03-08T11:10:51.823Z,1008.14
2017-03-08T11:15:48.648Z,1008.01
2017-03-08T11:20:45.192Z,1008.00
2017-03-08T11:25:42.028Z,1007.94
2017-03-08T11:30:38.283Z,1007.88
2017-03-08T11:35:34.667Z,1007.82
2017-03-08T11:40:31.058Z,1007.88
2017-03-08T11:45:27.801Z,1007.64
2017-03-08T11:50:25.254Z,1007.44
2017-03-08T11:55:21.756Z,1007.52
2017-03-08T12:00:18.514Z,1007.36
2017-03-08T12:05:14.358Z,1007.19
2017-03-08T12:10:10.866Z,1007.12
2017-03-08T12:15:07.546Z,1006.98
2017-03-08T12:20:04.916Z,1006.87
2017-03-08T12:25:01.885Z,1006.83
2017-03-08T12:29:58.312Z,1006.81
2017-03-08T12:34:54.744Z,1006.46
2017-03-08T12:39:51.046Z,1006.43
2017-03-08T12:44:47.727Z,1006.17
2017-03-08T12:49:44.268Z,1006.08
2017-03-08T12:54:40.962Z,1006.14
2017-03-08T12:59:37.826Z,1006.02
2017-03-08T13:04:34.351Z,1005.88
2017-03-08T13:09:30.514Z,1005.75
2017-03-08T13:14:27.113Z,1005.71
2017-03-08T13:19:23.455Z,1005.59
2017-03-08T13:24:21.394Z,1005.44
2017-03-08T13:29:18.089Z,1005.34
2017-03-08T13:34:14.741Z,1005.29
2017-03-08T13:39:11.035Z,1005.31
2017-03-08T13:44:07.554Z,1005.22
2017-03-08T13:49:04.255Z,1005.17
2017-03-08T13:54:00.494Z,1005.04
2017-03-08T13:58:56.618Z,1005.00
2017-03-08T14:03:53.893Z,1005.00
2017-03-08T14:08:50.470Z,1004.89
2017-03-08T14:13:47.201Z,1004.90
2017-03-08T14:18:43.854Z,1004.76
2017-03-08T14:23:40.278Z,1004.70
2017-03-08T14:28:37.864Z,1004.67
2017-03-08T14:33:34.191Z,1004.55
2017-03-08T14:38:30.700Z,1004.42
2017-03-08T14:43:28.460Z,1004.43
2017-03-08T14:48:24.498Z,1004.40
2017-03-08T14:53:20.757Z,1004.32
2017-03-08T14:58:17.212Z,1004.31
2017-03-08T15:03:13.742Z,1004.29
2017-03-08T15:08:10.972Z,1004.32
2017-03-08T15:13:07.106Z,1004.28
2017-03-08T15:18:04.830Z,1004.18
2017-03-08T15:23:00.915Z,1004.17
2017-03-08T15:27:57.286Z,1004.14
2017-03-08T15:32:54.143Z,1004.19
2017-03-08T15:37:50.976Z,1004.21
2017-03-08T15:42:47.265Z,1004.02
2017-03-08T15:47:43.854Z,1004.13
2017-03-08T15:52:40.344Z,1004.09
2017-03-08T15:57:37.090Z,1004.09
2017-03-08T16:02:34.465Z,1004.17
2017-03-08T16:07:30.817Z,1004.05
2017-03-08T16:12:27.008Z,1004.08
2017-03-08T16:17:23.411Z,1004.07
2017-03-08T16:22:19.667Z,1004.03
2017-03-08T16:27:16.098Z,1004.03
2017-03-08T16:32:12.646Z,1004.07
2017-03-08T16:37:09.167Z,1004.02
2017-03-08T16:42:05.557Z,1004.06
2017-03-08T16:47:01.987Z,1004.14
2017-03-08T16:51:59.482Z,1004.21
2017-03-08T16:56:55.961Z,1004.05
2017-03-08T17:01:52.348Z,1004.08
2017-03-08T17:06:49.236Z,1004.05
2017-03-08T17:11:45.734Z,1003.94
2017-03-08T17:16:42.088Z,1004.10
2017-03-08T17:21:39.439Z,1004.10
2017-03-08T17:26:36.020Z,1004.22
2017-03-08T17:31:32.257Z,1004.18
2017-03-08T17:36:28.703Z,1004.48
2017-03-08T17:41:25.363Z,1004.40
2017-03-08T17:46:21.683Z,1004.48
2017-03-08T17:51:18.293Z,1004.61
2017-03-08T17:56:15.375Z,1004.59
2017-03-08T18:01:11.886Z,1004.55
2017-03-08T18:06:08.504Z,1004.61
2017-03-08T18:11:04.828Z,1004.61
2017-03-08T18:16:01.713Z,1004.67
2017-03-08T18:20:58.059Z,1004.54
2017-03-08T18:25:54.544Z,1004.53
2017-03-08T18:30:50.996Z,1004.67
2017-03-08T18:35:48.390Z,1004.72
2017-03-08T18:40:44.752Z,1004.88
2017-03-08T18:45:40.904Z,1005.00
2017-03-08T18:50:37.299Z,1004.93
2017-03-08T18:55:33.985Z,1005.11
2017-03-08T19:00:30.426Z,1005.05
2017-03-08T19:05:26.900Z,1005.16
2017-03-08T19:10:23.638Z,1005.21
2017-03-08T19:15:20.127Z,1005.29
2017-03-08T19:20:17.726Z,1005.37
2017-03-08T19:25:14.466Z,1005.34
2017-03-08T19:30:10.750Z,1005.47
2017-03-08T19:35:08.154Z,1005.48
2017-03-08T19:40:04.345Z,1005.52
2017-03-08T19:45:00.708Z,1005.55
2017-03-08T19:49:57.953Z,1005.59
2017-03-08T19:54:54.453Z,1005.80
2017-03-08T19:59:50.986Z,1005.79
2017-03-08T20:04:47.893Z,1005.81
2017-03-08T20:09:45.614Z,1006.01
2017-03-08T20:14:41.927Z,1005.97
2017-03-08T20:19:38.601Z,1006.13
2017-03-08T20:24:35.193Z,1006.17
2017-03-08T20:29:32.275Z,1006.31
2017-03-08T20:34:28.276Z,1006.29
2017-03-08T20:39:24.802Z,1006.52
2017-03-08T20:44:22.845Z,1006.66
2017-03-08T20:49:19.230Z,1006.73
2017-03-08T20:54:15.850Z,1006.75
2017-03-08T20:59:12.479Z,1006.74
2017-03-08T21:04:09.057Z,1006.95
2017-03-08T21:09:05.520Z,1006.94
2017-03-08T21:14:01.917Z,1007.02
2017-03-08T21:18:58.708Z,1007.03
2017-03-08T21:23:54.961Z,1007.04
2017-03-08T21:28:52.244Z,1007.13
2017-03-08T21:33:48.979Z,1007.28
2017-03-08T21:38:45.786Z,1007.45
2017-03-08T21:43:42.005Z,1007.64
2017-03-08T21:48:39.190Z,1007.60
2017-03-08T21:53:35.601Z,1007.86
2017-03-08T21:58:32.124Z,1007.91
2017-03-08T22:03:28.736Z,1007.91
2017-03-08T22:08:25.215Z,1008.07
2017-03-08T22:13:21.615Z,1008.15
2017-03-08T22:18:17.749Z,1008.26
2017-03-08T22:23:13.766Z,1008.36
2017-03-08T22:28:09.908Z,1008.46
2017-03-08T22:33:06.327Z,1008.58
2017-03-08T22:38:03.243Z,1008.73
2017-03-08T22:42:59.889Z,1008.72
2017-03-08T22:47:56.663Z,1008.77
2017-03-08T22:52:53.152Z,1008.93
2017-03-08T22:57:50.257Z,1008.98
2017-03-08T23:02:46.894Z,1008.94
2017-03-08T23:07:45.859Z,1009.07
2017-03-08T23:12:41.706Z,1009.10
2017-03-08T23:17:38.185Z,1009.15
2017-03-08T23:22:34.287Z,1009.12
2017-03-08T23:27:30.873Z,1009.23
2017-03-08T23:32:27.426Z,1009.26
2017-03-08T23:37:24.644Z,1009.36
2017-03-08T23:42:21.110Z,1009.37
2017-03-08T23:47:17.555Z,1009.51
2017-03-08T23:52:14.186Z,1009.52
2017-03-08T23:57:10.538Z,1009.60
